sensor_id;sensor_type;location;lat;lon;timestamp;P1;durP1;ratioP1;P2;durP2;ratioP2
54139;SDS011;40046;53.254;5.900;2024-03-07T00:03:57;35.88;;;26.95;;
54139;SDS011;40046;53.254;5.900;2024-03-07T00:06:23;36.05;;;26.58;;
54139;SDS011;40046;53.254;5.900;2024-03-07T00:08:50;36.38;;;26.77;;
54139;SDS011;40046;53.254;5.900;2024-03-07T00:11:16;33.85;;;26.90;;
54139;SDS011;40046;53.254;5.900;2024-03-07T00:13:42;36.22;;;26.13;;
54139;SDS011;40046;53.254;5.900;2024-03-07T00:16:09;33.90;;;25.77;;
54139;SDS011;40046;53.254;5.900;2024-03-07T00:18:35;33.38;;;26.35;;
54139;SDS011;40046;53.254;5.900;2024-03-07T00:21:02;34.95;;;27.00;;
54139;SDS011;40046;53.254;5.900;2024-03-07T00:23:28;37.03;;;25.83;;
54139;SDS011;40046;53.254;5.900;2024-03-07T00:25:54;39.92;;;27.20;;
54139;SDS011;40046;53.254;5.900;2024-03-07T00:28:21;33.85;;;25.83;;
54139;SDS011;40046;53.254;5.900;2024-03-07T00:30:47;32.92;;;24.05;;
54139;SDS011;40046;53.254;5.900;2024-03-07T00:33:13;36.28;;;26.90;;
54139;SDS011;40046;53.254;5.900;2024-03-07T00:35:40;34.63;;;25.20;;
54139;SDS011;40046;53.254;5.900;2024-03-07T00:38:06;32.05;;;25.30;;
54139;SDS011;40046;53.254;5.900;2024-03-07T00:40:32;31.00;;;24.08;;
54139;SDS011;40046;53.254;5.900;2024-03-07T00:42:58;38.05;;;25.63;;
54139;SDS011;40046;53.254;5.900;2024-03-07T00:45:25;34.63;;;25.52;;
54139;SDS011;40046;53.254;5.900;2024-03-07T00:47:51;32.88;;;26.15;;
54139;SDS011;40046;53.254;5.900;2024-03-07T00:50:17;36.70;;;27.15;;
54139;SDS011;40046;53.254;5.900;2024-03-07T00:52:43;34.58;;;24.92;;
54139;SDS011;40046;53.254;5.900;2024-03-07T00:55:09;32.17;;;25.52;;
54139;SDS011;40046;53.254;5.900;2024-03-07T00:57:36;31.55;;;23.77;;
54139;SDS011;40046;53.254;5.900;2024-03-07T01:00:02;33.10;;;24.52;;
54139;SDS011;40046;53.254;5.900;2024-03-07T01:02:29;31.63;;;24.63;;
54139;SDS011;40046;53.254;5.900;2024-03-07T01:04:55;32.28;;;24.55;;
54139;SDS011;40046;53.254;5.900;2024-03-07T01:07:21;29.30;;;24.20;;
54139;SDS011;40046;53.254;5.900;2024-03-07T01:09:49;30.85;;;24.05;;
54139;SDS011;40046;53.254;5.900;2024-03-07T01:12:15;28.30;;;23.88;;
54139;SDS011;40046;53.254;5.900;2024-03-07T01:14:42;30.02;;;22.45;;
54139;SDS011;40046;53.254;5.900;2024-03-07T01:17:08;30.48;;;22.40;;
54139;SDS011;40046;53.254;5.900;2024-03-07T01:19:34;31.98;;;23.40;;
54139;SDS011;40046;53.254;5.900;2024-03-07T01:22:00;32.83;;;23.08;;
54139;SDS011;40046;53.254;5.900;2024-03-07T01:24:26;30.65;;;22.80;;
54139;SDS011;40046;53.254;5.900;2024-03-07T01:26:53;29.90;;;22.45;;
54139;SDS011;40046;53.254;5.900;2024-03-07T01:29:19;28.98;;;21.88;;
54139;SDS011;40046;53.254;5.900;2024-03-07T01:31:45;25.48;;;20.92;;
54139;SDS011;40046;53.254;5.900;2024-03-07T01:34:12;26.90;;;21.00;;
54139;SDS011;40046;53.254;5.900;2024-03-07T01:36:38;30.48;;;22.50;;
54139;SDS011;40046;53.254;5.900;2024-03-07T01:39:04;26.80;;;22.42;;
54139;SDS011;40046;53.254;5.900;2024-03-07T01:41:30;27.88;;;22.05;;
54139;SDS011;40046;53.254;5.900;2024-03-07T01:43:56;28.35;;;21.52;;
54139;SDS011;40046;53.254;5.900;2024-03-07T01:46:22;29.17;;;22.10;;
54139;SDS011;40046;53.254;5.900;2024-03-07T01:48:49;27.80;;;21.48;;
54139;SDS011;40046;53.254;5.900;2024-03-07T01:51:16;30.52;;;22.90;;
54139;SDS011;40046;53.254;5.900;2024-03-07T01:53:42;28.67;;;22.08;;
54139;SDS011;40046;53.254;5.900;2024-03-07T01:56:08;25.20;;;21.92;;
54139;SDS011;40046;53.254;5.900;2024-03-07T01:58:34;29.30;;;20.92;;
54139;SDS011;40046;53.254;5.900;2024-03-07T02:01:01;29.55;;;21.95;;
54139;SDS011;40046;53.254;5.900;2024-03-07T02:03:27;30.70;;;21.83;;
54139;SDS011;40046;53.254;5.900;2024-03-07T02:05:53;30.17;;;22.08;;
54139;SDS011;40046;53.254;5.900;2024-03-07T02:08:20;30.65;;;22.73;;
54139;SDS011;40046;53.254;5.900;2024-03-07T02:10:46;26.77;;;21.08;;
54139;SDS011;40046;53.254;5.900;2024-03-07T02:13:13;28.00;;;22.35;;
54139;SDS011;40046;53.254;5.900;2024-03-07T02:15:39;28.95;;;19.98;;
54139;SDS011;40046;53.254;5.900;2024-03-07T02:18:08;32.10;;;22.45;;
54139;SDS011;40046;53.254;5.900;2024-03-07T02:20:34;26.42;;;21.02;;
54139;SDS011;40046;53.254;5.900;2024-03-07T02:23:00;26.17;;;21.00;;
54139;SDS011;40046;53.254;5.900;2024-03-07T02:25:27;31.08;;;21.98;;
54139;SDS011;40046;53.254;5.900;2024-03-07T02:27:54;28.67;;;20.52;;
54139;SDS011;40046;53.254;5.900;2024-03-07T02:30:20;29.70;;;20.83;;
54139;SDS011;40046;53.254;5.900;2024-03-07T02:32:46;31.17;;;22.45;;
54139;SDS011;40046;53.254;5.900;2024-03-07T02:35:19;31.83;;;21.02;;
54139;SDS011;40046;53.254;5.900;2024-03-07T02:37:46;27.60;;;22.17;;
54139;SDS011;40046;53.254;5.900;2024-03-07T02:40:12;31.05;;;20.83;;
54139;SDS011;40046;53.254;5.900;2024-03-07T02:42:38;26.25;;;19.80;;
54139;SDS011;40046;53.254;5.900;2024-03-07T02:45:05;29.25;;;21.23;;
54139;SDS011;40046;53.254;5.900;2024-03-07T02:47:31;26.65;;;21.30;;
54139;SDS011;40046;53.254;5.900;2024-03-07T02:49:57;27.08;;;21.50;;
54139;SDS011;40046;53.254;5.900;2024-03-07T02:52:24;27.77;;;20.63;;
54139;SDS011;40046;53.254;5.900;2024-03-07T02:54:50;28.30;;;20.90;;
54139;SDS011;40046;53.254;5.900;2024-03-07T02:57:16;27.13;;;22.30;;
54139;SDS011;40046;53.254;5.900;2024-03-07T02:59:42;31.20;;;22.40;;
54139;SDS011;40046;53.254;5.900;2024-03-07T03:02:08;26.60;;;20.88;;
54139;SDS011;40046;53.254;5.900;2024-03-07T03:04:35;26.10;;;20.35;;
54139;SDS011;40046;53.254;5.900;2024-03-07T03:07:01;27.27;;;20.58;;
54139;SDS011;40046;53.254;5.900;2024-03-07T03:09:27;28.33;;;20.73;;
54139;SDS011;40046;53.254;5.900;2024-03-07T03:11:53;29.35;;;21.95;;
54139;SDS011;40046;53.254;5.900;2024-03-07T03:14:19;28.33;;;20.63;;
54139;SDS011;40046;53.254;5.900;2024-03-07T03:16:46;29.63;;;20.23;;
54139;SDS011;40046;53.254;5.900;2024-03-07T03:19:12;26.15;;;20.02;;
54139;SDS011;40046;53.254;5.900;2024-03-07T03:21:38;29.35;;;21.40;;
54139;SDS011;40046;53.254;5.900;2024-03-07T03:24:06;33.83;;;21.13;;
54139;SDS011;40046;53.254;5.900;2024-03-07T03:26:32;29.30;;;19.85;;
54139;SDS011;40046;53.254;5.900;2024-03-07T03:28:58;24.55;;;18.33;;
54139;SDS011;40046;53.254;5.900;2024-03-07T03:31:25;25.98;;;20.60;;
54139;SDS011;40046;53.254;5.900;2024-03-07T03:33:51;28.23;;;22.42;;
54139;SDS011;40046;53.254;5.900;2024-03-07T03:36:17;23.75;;;19.40;;
54139;SDS011;40046;53.254;5.900;2024-03-07T03:38:44;27.13;;;20.05;;
54139;SDS011;40046;53.254;5.900;2024-03-07T03:41:14;27.15;;;21.05;;
54139;SDS011;40046;53.254;5.900;2024-03-07T03:43:40;26.25;;;19.92;;
54139;SDS011;40046;53.254;5.900;2024-03-07T03:46:09;25.98;;;19.67;;
54139;SDS011;40046;53.254;5.900;2024-03-07T03:48:35;28.55;;;20.90;;
54139;SDS011;40046;53.254;5.900;2024-03-07T03:51:02;27.58;;;21.00;;
54139;SDS011;40046;53.254;5.900;2024-03-07T03:53:29;26.30;;;20.65;;
54139;SDS011;40046;53.254;5.900;2024-03-07T03:55:55;29.80;;;21.95;;
54139;SDS011;40046;53.254;5.900;2024-03-07T03:58:22;28.67;;;20.52;;
54139;SDS011;40046;53.254;5.900;2024-03-07T04:00:48;25.88;;;19.35;;
54139;SDS011;40046;53.254;5.900;2024-03-07T04:03:14;26.92;;;20.90;;
54139;SDS011;40046;53.254;5.900;2024-03-07T04:05:40;31.58;;;21.92;;
54139;SDS011;40046;53.254;5.900;2024-03-07T04:08:06;30.67;;;21.23;;
54139;SDS011;40046;53.254;5.900;2024-03-07T04:10:32;31.10;;;21.73;;
54139;SDS011;40046;53.254;5.900;2024-03-07T04:12:58;27.08;;;20.08;;
54139;SDS011;40046;53.254;5.900;2024-03-07T04:15:25;26.65;;;20.60;;
54139;SDS011;40046;53.254;5.900;2024-03-07T04:17:52;30.50;;;19.95;;
54139;SDS011;40046;53.254;5.900;2024-03-07T04:20:18;26.65;;;18.77;;
54139;SDS011;40046;53.254;5.900;2024-03-07T04:22:44;28.60;;;19.25;;
54139;SDS011;40046;53.254;5.900;2024-03-07T04:25:10;28.33;;;20.63;;
54139;SDS011;40046;53.254;5.900;2024-03-07T04:27:38;26.38;;;19.40;;
54139;SDS011;40046;53.254;5.900;2024-03-07T04:30:08;27.90;;;20.42;;
54139;SDS011;40046;53.254;5.900;2024-03-07T04:32:38;29.13;;;19.70;;
54139;SDS011;40046;53.254;5.900;2024-03-07T04:35:04;24.45;;;19.30;;
54139;SDS011;40046;53.254;5.900;2024-03-07T04:37:35;22.88;;;17.10;;
54139;SDS011;40046;53.254;5.900;2024-03-07T04:40:05;27.05;;;19.48;;
54139;SDS011;40046;53.254;5.900;2024-03-07T04:42:43;38.05;;;21.67;;
54139;SDS011;40046;53.254;5.900;2024-03-07T04:45:10;28.35;;;18.63;;
54139;SDS011;40046;53.254;5.900;2024-03-07T04:47:41;22.75;;;17.70;;
54139;SDS011;40046;53.254;5.900;2024-03-07T04:50:11;24.55;;;18.65;;
54139;SDS011;40046;53.254;5.900;2024-03-07T04:52:38;28.00;;;20.90;;
54139;SDS011;40046;53.254;5.900;2024-03-07T04:55:08;26.17;;;20.02;;
54139;SDS011;40046;53.254;5.900;2024-03-07T04:57:35;25.98;;;19.73;;
54139;SDS011;40046;53.254;5.900;2024-03-07T05:00:03;29.67;;;20.23;;
54139;SDS011;40046;53.254;5.900;2024-03-07T05:02:30;25.55;;;19.52;;
54139;SDS011;40046;53.254;5.900;2024-03-07T05:04:56;28.35;;;19.83;;
54139;SDS011;40046;53.254;5.900;2024-03-07T05:07:22;24.92;;;19.42;;
54139;SDS011;40046;53.254;5.900;2024-03-07T05:09:48;28.45;;;21.40;;
54139;SDS011;40046;53.254;5.900;2024-03-07T05:12:14;29.38;;;19.42;;
54139;SDS011;40046;53.254;5.900;2024-03-07T05:14:40;28.60;;;21.67;;
54139;SDS011;40046;53.254;5.900;2024-03-07T05:17:07;26.20;;;21.15;;
54139;SDS011;40046;53.254;5.900;2024-03-07T05:19:36;29.33;;;20.00;;
54139;SDS011;40046;53.254;5.900;2024-03-07T05:22:03;27.33;;;21.42;;
54139;SDS011;40046;53.254;5.900;2024-03-07T05:24:32;27.33;;;20.90;;
54139;SDS011;40046;53.254;5.900;2024-03-07T05:26:59;28.58;;;21.23;;
54139;SDS011;40046;53.254;5.900;2024-03-07T05:29:25;28.08;;;21.10;;
54139;SDS011;40046;53.254;5.900;2024-03-07T05:31:52;31.48;;;20.50;;
54139;SDS011;40046;53.254;5.900;2024-03-07T05:34:18;29.75;;;21.00;;
54139;SDS011;40046;53.254;5.900;2024-03-07T05:36:45;25.85;;;20.42;;
54139;SDS011;40046;53.254;5.900;2024-03-07T05:39:15;29.35;;;21.15;;
54139;SDS011;40046;53.254;5.900;2024-03-07T05:41:42;26.70;;;20.60;;
54139;SDS011;40046;53.254;5.900;2024-03-07T05:44:10;27.35;;;18.55;;
54139;SDS011;40046;53.254;5.900;2024-03-07T05:46:40;27.10;;;20.42;;
54139;SDS011;40046;53.254;5.900;2024-03-07T05:49:11;25.48;;;19.35;;
54139;SDS011;40046;53.254;5.900;2024-03-07T05:51:37;26.50;;;19.95;;
54139;SDS011;40046;53.254;5.900;2024-03-07T05:54:03;25.98;;;19.67;;
54139;SDS011;40046;53.254;5.900;2024-03-07T05:56:32;28.40;;;20.50;;
54139;SDS011;40046;53.254;5.900;2024-03-07T05:59:02;24.67;;;19.45;;
54139;SDS011;40046;53.254;5.900;2024-03-07T06:01:38;26.52;;;19.77;;
54139;SDS011;40046;53.254;5.900;2024-03-07T06:04:05;24.33;;;19.15;;
54139;SDS011;40046;53.254;5.900;2024-03-07T06:06:32;25.48;;;19.52;;
54139;SDS011;40046;53.254;5.900;2024-03-07T06:08:58;26.73;;;19.70;;
54139;SDS011;40046;53.254;5.900;2024-03-07T06:11:24;30.75;;;21.70;;
54139;SDS011;40046;53.254;5.900;2024-03-07T06:13:51;30.42;;;22.90;;
54139;SDS011;40046;53.254;5.900;2024-03-07T06:16:17;30.75;;;20.33;;
54139;SDS011;40046;53.254;5.900;2024-03-07T06:18:43;28.25;;;21.48;;
54139;SDS011;40046;53.254;5.900;2024-03-07T06:21:12;27.45;;;21.30;;
54139;SDS011;40046;53.254;5.900;2024-03-07T06:23:38;33.97;;;21.98;;
54139;SDS011;40046;53.254;5.900;2024-03-07T06:26:04;27.75;;;20.45;;
54139;SDS011;40046;53.254;5.900;2024-03-07T06:28:38;29.33;;;20.20;;
54139;SDS011;40046;53.254;5.900;2024-03-07T06:31:04;27.17;;;20.73;;
54139;SDS011;40046;53.254;5.900;2024-03-07T06:33:33;29.02;;;21.83;;
54139;SDS011;40046;53.254;5.900;2024-03-07T06:35:59;27.52;;;20.88;;
54139;SDS011;40046;53.254;5.900;2024-03-07T06:38:28;31.83;;;20.95;;
54139;SDS011;40046;53.254;5.900;2024-03-07T06:40:55;29.60;;;23.10;;
54139;SDS011;40046;53.254;5.900;2024-03-07T06:43:21;29.83;;;21.95;;
54139;SDS011;40046;53.254;5.900;2024-03-07T06:45:52;25.42;;;19.18;;
54139;SDS011;40046;53.254;5.900;2024-03-07T06:48:19;34.15;;;21.38;;
54139;SDS011;40046;53.254;5.900;2024-03-07T06:50:46;30.75;;;22.55;;
54139;SDS011;40046;53.254;5.900;2024-03-07T06:53:12;27.60;;;21.50;;
54139;SDS011;40046;53.254;5.900;2024-03-07T06:55:38;29.33;;;23.52;;
54139;SDS011;40046;53.254;5.900;2024-03-07T06:58:04;29.15;;;23.63;;
54139;SDS011;40046;53.254;5.900;2024-03-07T07:00:31;28.60;;;22.48;;
54139;SDS011;40046;53.254;5.900;2024-03-07T07:03:00;31.33;;;24.25;;
54139;SDS011;40046;53.254;5.900;2024-03-07T07:05:29;32.42;;;24.42;;
54139;SDS011;40046;53.254;5.900;2024-03-07T07:07:55;36.30;;;27.90;;
54139;SDS011;40046;53.254;5.900;2024-03-07T07:10:21;35.28;;;26.35;;
54139;SDS011;40046;53.254;5.900;2024-03-07T07:12:49;35.63;;;27.52;;
54139;SDS011;40046;53.254;5.900;2024-03-07T07:15:17;37.38;;;28.60;;
54139;SDS011;40046;53.254;5.900;2024-03-07T07:17:44;38.72;;;30.20;;
54139;SDS011;40046;53.254;5.900;2024-03-07T07:20:12;43.05;;;31.17;;
54139;SDS011;40046;53.254;5.900;2024-03-07T07:22:42;41.08;;;30.25;;
54139;SDS011;40046;53.254;5.900;2024-03-07T07:25:08;42.47;;;32.28;;
54139;SDS011;40046;53.254;5.900;2024-03-07T07:30:12;45.13;;;31.70;;
54139;SDS011;40046;53.254;5.900;2024-03-07T07:32:39;43.63;;;31.63;;
54139;SDS011;40046;53.254;5.900;2024-03-07T07:35:05;42.10;;;31.50;;
54139;SDS011;40046;53.254;5.900;2024-03-07T07:37:40;49.63;;;32.88;;
54139;SDS011;40046;53.254;5.900;2024-03-07T07:40:06;45.75;;;34.00;;
54139;SDS011;40046;53.254;5.900;2024-03-07T07:42:37;48.85;;;33.75;;
54139;SDS011;40046;53.254;5.900;2024-03-07T07:45:07;47.75;;;33.33;;
54139;SDS011;40046;53.254;5.900;2024-03-07T07:47:39;45.08;;;32.33;;
54139;SDS011;40046;53.254;5.900;2024-03-07T07:50:10;54.13;;;34.42;;
54139;SDS011;40046;53.254;5.900;2024-03-07T07:52:46;47.10;;;33.30;;
54139;SDS011;40046;53.254;5.900;2024-03-07T07:55:13;52.58;;;35.20;;
54139;SDS011;40046;53.254;5.900;2024-03-07T07:57:43;46.75;;;33.33;;
54139;SDS011;40046;53.254;5.900;2024-03-07T08:00:13;45.20;;;33.63;;
54139;SDS011;40046;53.254;5.900;2024-03-07T08:05:15;50.78;;;34.97;;
54139;SDS011;40046;53.254;5.900;2024-03-07T08:07:45;51.38;;;36.22;;
54139;SDS011;40046;53.254;5.900;2024-03-07T08:10:13;51.83;;;37.67;;
54139;SDS011;40046;53.254;5.900;2024-03-07T08:12:39;57.80;;;37.88;;
54139;SDS011;40046;53.254;5.900;2024-03-07T08:15:09;55.42;;;37.47;;
54139;SDS011;40046;53.254;5.900;2024-03-07T08:17:42;58.45;;;39.05;;
54139;SDS011;40046;53.254;5.900;2024-03-07T08:20:15;51.00;;;35.30;;
54139;SDS011;40046;53.254;5.900;2024-03-07T08:22:43;50.92;;;36.13;;
54139;SDS011;40046;53.254;5.900;2024-03-07T08:25:10;50.17;;;36.08;;
54139;SDS011;40046;53.254;5.900;2024-03-07T08:27:36;52.83;;;35.78;;
54139;SDS011;40046;53.254;5.900;2024-03-07T08:30:03;49.50;;;35.88;;
54139;SDS011;40046;53.254;5.900;2024-03-07T08:32:32;47.65;;;34.17;;
54139;SDS011;40046;53.254;5.900;2024-03-07T08:34:59;48.30;;;33.70;;
54139;SDS011;40046;53.254;5.900;2024-03-07T08:37:31;47.88;;;33.30;;
54139;SDS011;40046;53.254;5.900;2024-03-07T08:39:57;45.53;;;33.88;;
54139;SDS011;40046;53.254;5.900;2024-03-07T08:42:24;48.05;;;32.55;;
54139;SDS011;40046;53.254;5.900;2024-03-07T08:44:50;45.58;;;33.58;;
54139;SDS011;40046;53.254;5.900;2024-03-07T08:47:16;50.63;;;36.10;;
54139;SDS011;40046;53.254;5.900;2024-03-07T08:49:42;49.10;;;34.03;;
54139;SDS011;40046;53.254;5.900;2024-03-07T08:52:08;45.65;;;33.50;;
54139;SDS011;40046;53.254;5.900;2024-03-07T08:54:34;45.08;;;30.88;;
54139;SDS011;40046;53.254;5.900;2024-03-07T08:57:00;42.08;;;29.73;;
54139;SDS011;40046;53.254;5.900;2024-03-07T08:59:26;46.80;;;32.97;;
54139;SDS011;40046;53.254;5.900;2024-03-07T09:01:53;46.63;;;32.88;;
54139;SDS011;40046;53.254;5.900;2024-03-07T09:04:19;47.85;;;33.17;;
54139;SDS011;40046;53.254;5.900;2024-03-07T09:06:47;53.20;;;35.53;;
54139;SDS011;40046;53.254;5.900;2024-03-07T09:09:13;54.55;;;37.90;;
54139;SDS011;40046;53.254;5.900;2024-03-07T09:11:43;59.25;;;37.90;;
54139;SDS011;40046;53.254;5.900;2024-03-07T09:14:10;61.67;;;38.30;;
54139;SDS011;40046;53.254;5.900;2024-03-07T09:16:37;72.68;;;44.85;;
54139;SDS011;40046;53.254;5.900;2024-03-07T09:19:05;82.18;;;46.67;;
54139;SDS011;40046;53.254;5.900;2024-03-07T09:21:31;89.95;;;51.95;;
54139;SDS011;40046;53.254;5.900;2024-03-07T09:23:57;97.88;;;52.72;;
54139;SDS011;40046;53.254;5.900;2024-03-07T09:26:23;95.38;;;51.45;;
54139;SDS011;40046;53.254;5.900;2024-03-07T09:28:50;86.28;;;50.17;;
54139;SDS011;40046;53.254;5.900;2024-03-07T09:31:16;64.18;;;40.90;;
54139;SDS011;40046;53.254;5.900;2024-03-07T09:33:42;50.25;;;33.72;;
54139;SDS011;40046;53.254;5.900;2024-03-07T09:36:08;47.33;;;33.38;;
54139;SDS011;40046;53.254;5.900;2024-03-07T09:38:35;45.95;;;30.27;;
54139;SDS011;40046;53.254;5.900;2024-03-07T09:41:01;41.58;;;30.73;;
54139;SDS011;40046;53.254;5.900;2024-03-07T09:43:27;36.35;;;28.63;;
54139;SDS011;40046;53.254;5.900;2024-03-07T09:45:54;39.95;;;28.83;;
54139;SDS011;40046;53.254;5.900;2024-03-07T09:48:21;34.53;;;25.70;;
54139;SDS011;40046;53.254;5.900;2024-03-07T09:50:50;44.22;;;27.13;;
54139;SDS011;40046;53.254;5.900;2024-03-07T09:53:18;37.28;;;25.83;;
54139;SDS011;40046;53.254;5.900;2024-03-07T09:55:46;37.65;;;28.35;;
54139;SDS011;40046;53.254;5.900;2024-03-07T09:58:12;41.47;;;30.08;;
54139;SDS011;40046;53.254;5.900;2024-03-07T10:00:38;38.70;;;27.92;;
54139;SDS011;40046;53.254;5.900;2024-03-07T10:03:07;39.13;;;27.63;;
54139;SDS011;40046;53.254;5.900;2024-03-07T10:05:34;44.70;;;29.73;;
54139;SDS011;40046;53.254;5.900;2024-03-07T10:08:02;41.63;;;29.23;;
54139;SDS011;40046;53.254;5.900;2024-03-07T10:10:29;38.03;;;27.90;;
54139;SDS011;40046;53.254;5.900;2024-03-07T10:12:55;43.22;;;31.65;;
54139;SDS011;40046;53.254;5.900;2024-03-07T10:15:28;48.17;;;31.55;;
54139;SDS011;40046;53.254;5.900;2024-03-07T10:17:54;52.40;;;32.53;;
54139;SDS011;40046;53.254;5.900;2024-03-07T10:20:20;61.28;;;37.17;;
54139;SDS011;40046;53.254;5.900;2024-03-07T10:22:47;56.92;;;35.55;;
54139;SDS011;40046;53.254;5.900;2024-03-07T10:25:17;61.83;;;37.45;;
54139;SDS011;40046;53.254;5.900;2024-03-07T10:27:45;63.03;;;37.45;;
54139;SDS011;40046;53.254;5.900;2024-03-07T10:30:14;51.78;;;33.90;;
54139;SDS011;40046;53.254;5.900;2024-03-07T10:32:51;52.20;;;32.28;;
54139;SDS011;40046;53.254;5.900;2024-03-07T10:35:23;47.80;;;30.65;;
54139;SDS011;40046;53.254;5.900;2024-03-07T10:37:50;46.53;;;30.70;;
54139;SDS011;40046;53.254;5.900;2024-03-07T10:40:19;45.28;;;28.77;;
54139;SDS011;40046;53.254;5.900;2024-03-07T10:42:47;41.15;;;27.60;;
54139;SDS011;40046;53.254;5.900;2024-03-07T10:45:20;41.47;;;27.20;;
54139;SDS011;40046;53.254;5.900;2024-03-07T10:47:54;37.78;;;24.92;;
54139;SDS011;40046;53.254;5.900;2024-03-07T10:50:45;38.38;;;27.67;;
54139;SDS011;40046;53.254;5.900;2024-03-07T10:55:38;39.22;;;27.52;;
54139;SDS011;40046;53.254;5.900;2024-03-07T10:58:11;40.78;;;26.83;;
54139;SDS011;40046;53.254;5.900;2024-03-07T11:00:41;39.42;;;26.75;;
54139;SDS011;40046;53.254;5.900;2024-03-07T11:03:11;40.40;;;25.73;;
54139;SDS011;40046;53.254;5.900;2024-03-07T11:05:37;36.38;;;25.45;;
54139;SDS011;40046;53.254;5.900;2024-03-07T11:08:04;32.97;;;23.10;;
54139;SDS011;40046;53.254;5.900;2024-03-07T11:10:37;34.72;;;22.92;;
54139;SDS011;40046;53.254;5.900;2024-03-07T11:13:03;39.10;;;23.08;;
54139;SDS011;40046;53.254;5.900;2024-03-07T11:15:30;35.17;;;24.25;;
54139;SDS011;40046;53.254;5.900;2024-03-07T11:17:58;32.88;;;23.13;;
54139;SDS011;40046;53.254;5.900;2024-03-07T11:20:25;36.63;;;24.90;;
54139;SDS011;40046;53.254;5.900;2024-03-07T11:22:51;33.10;;;23.17;;
54139;SDS011;40046;53.254;5.900;2024-03-07T11:25:21;29.85;;;21.52;;
54139;SDS011;40046;53.254;5.900;2024-03-07T11:27:50;28.88;;;20.90;;
54139;SDS011;40046;53.254;5.900;2024-03-07T11:30:19;31.80;;;23.77;;
54139;SDS011;40046;53.254;5.900;2024-03-07T11:32:46;31.67;;;21.77;;
54139;SDS011;40046;53.254;5.900;2024-03-07T11:35:14;29.70;;;22.05;;
54139;SDS011;40046;53.254;5.900;2024-03-07T11:37:43;31.08;;;22.13;;
54139;SDS011;40046;53.254;5.900;2024-03-07T11:42:46;31.30;;;23.50;;
54139;SDS011;40046;53.254;5.900;2024-03-07T11:45:13;28.90;;;21.30;;
54139;SDS011;40046;53.254;5.900;2024-03-07T11:50:28;28.67;;;20.25;;
54139;SDS011;40046;53.254;5.900;2024-03-07T11:52:55;27.52;;;20.95;;
54139;SDS011;40046;53.254;5.900;2024-03-07T11:55:21;27.63;;;20.05;;
54139;SDS011;40046;53.254;5.900;2024-03-07T11:57:48;32.42;;;22.55;;
54139;SDS011;40046;53.254;5.900;2024-03-07T12:00:17;34.08;;;21.60;;
54139;SDS011;40046;53.254;5.900;2024-03-07T12:02:43;27.95;;;20.40;;
54139;SDS011;40046;53.254;5.900;2024-03-07T12:05:09;28.50;;;20.70;;
54139;SDS011;40046;53.254;5.900;2024-03-07T12:07:36;29.48;;;21.88;;
54139;SDS011;40046;53.254;5.900;2024-03-07T12:10:03;29.40;;;21.65;;
54139;SDS011;40046;53.254;5.900;2024-03-07T12:12:30;32.47;;;21.20;;
54139;SDS011;40046;53.254;5.900;2024-03-07T12:14:58;29.50;;;21.52;;
54139;SDS011;40046;53.254;5.900;2024-03-07T12:17:24;33.10;;;24.58;;
54139;SDS011;40046;53.254;5.900;2024-03-07T12:19:51;34.30;;;22.00;;
54139;SDS011;40046;53.254;5.900;2024-03-07T12:22:21;28.58;;;22.17;;
54139;SDS011;40046;53.254;5.900;2024-03-07T12:25:00;31.75;;;23.52;;
54139;SDS011;40046;53.254;5.900;2024-03-07T12:27:33;30.55;;;22.25;;
54139;SDS011;40046;53.254;5.900;2024-03-07T12:30:00;28.33;;;21.30;;
54139;SDS011;40046;53.254;5.900;2024-03-07T12:32:33;30.40;;;20.95;;
54139;SDS011;40046;53.254;5.900;2024-03-07T12:34:59;26.00;;;19.70;;
54139;SDS011;40046;53.254;5.900;2024-03-07T12:37:25;31.35;;;22.88;;
54139;SDS011;40046;53.254;5.900;2024-03-07T12:39:54;30.65;;;21.15;;
54139;SDS011;40046;53.254;5.900;2024-03-07T12:42:30;33.28;;;22.92;;
54139;SDS011;40046;53.254;5.900;2024-03-07T12:44:58;31.48;;;21.83;;
54139;SDS011;40046;53.254;5.900;2024-03-07T12:47:24;29.08;;;22.13;;
54139;SDS011;40046;53.254;5.900;2024-03-07T12:49:53;30.52;;;22.40;;
54139;SDS011;40046;53.254;5.900;2024-03-07T12:52:23;34.40;;;23.85;;
54139;SDS011;40046;53.254;5.900;2024-03-07T12:54:49;29.08;;;22.70;;
54139;SDS011;40046;53.254;5.900;2024-03-07T12:57:16;32.90;;;22.17;;
54139;SDS011;40046;53.254;5.900;2024-03-07T12:59:43;28.13;;;21.17;;
54139;SDS011;40046;53.254;5.900;2024-03-07T13:02:09;31.02;;;21.90;;
54139;SDS011;40046;53.254;5.900;2024-03-07T13:04:36;30.42;;;21.85;;
54139;SDS011;40046;53.254;5.900;2024-03-07T13:07:06;35.13;;;23.02;;
54139;SDS011;40046;53.254;5.900;2024-03-07T13:09:32;31.60;;;22.50;;
54139;SDS011;40046;53.254;5.900;2024-03-07T13:11:59;26.67;;;20.20;;
54139;SDS011;40046;53.254;5.900;2024-03-07T13:14:28;27.85;;;19.75;;
54139;SDS011;40046;53.254;5.900;2024-03-07T13:17:01;27.80;;;20.05;;
54139;SDS011;40046;53.254;5.900;2024-03-07T13:19:31;30.75;;;21.90;;
54139;SDS011;40046;53.254;5.900;2024-03-07T13:21:58;29.15;;;20.88;;
54139;SDS011;40046;53.254;5.900;2024-03-07T13:24:24;26.15;;;19.95;;
54139;SDS011;40046;53.254;5.900;2024-03-07T13:26:51;29.42;;;20.48;;
54139;SDS011;40046;53.254;5.900;2024-03-07T13:29:18;30.00;;;20.75;;
54139;SDS011;40046;53.254;5.900;2024-03-07T13:31:50;29.60;;;21.30;;
54139;SDS011;40046;53.254;5.900;2024-03-07T13:34:16;30.65;;;21.15;;
54139;SDS011;40046;53.254;5.900;2024-03-07T13:36:43;29.58;;;18.52;;
54139;SDS011;40046;53.254;5.900;2024-03-07T13:39:10;35.72;;;22.13;;
54139;SDS011;40046;53.254;5.900;2024-03-07T13:41:40;35.78;;;23.55;;
54139;SDS011;40046;53.254;5.900;2024-03-07T13:44:06;29.88;;;21.90;;
54139;SDS011;40046;53.254;5.900;2024-03-07T13:46:33;29.25;;;21.42;;
54139;SDS011;40046;53.254;5.900;2024-03-07T13:48:59;34.85;;;21.85;;
54139;SDS011;40046;53.254;5.900;2024-03-07T13:51:33;26.70;;;20.38;;
54139;SDS011;40046;53.254;5.900;2024-03-07T13:54:01;31.15;;;22.55;;
54139;SDS011;40046;53.254;5.900;2024-03-07T13:56:50;28.63;;;20.52;;
54139;SDS011;40046;53.254;5.900;2024-03-07T14:04:45;28.80;;;21.02;;
54139;SDS011;40046;53.254;5.900;2024-03-07T14:31:37;32.58;;;20.27;;
54139;SDS011;40046;53.254;5.900;2024-03-07T14:36:41;27.10;;;20.13;;
54139;SDS011;40046;53.254;5.900;2024-03-07T14:39:13;27.35;;;19.48;;
54139;SDS011;40046;53.254;5.900;2024-03-07T14:41:43;27.23;;;18.85;;
54139;SDS011;40046;53.254;5.900;2024-03-07T14:44:10;26.50;;;19.63;;
54139;SDS011;40046;53.254;5.900;2024-03-07T14:46:36;30.88;;;23.00;;
54139;SDS011;40046;53.254;5.900;2024-03-07T14:49:02;24.85;;;18.83;;
54139;SDS011;40046;53.254;5.900;2024-03-07T14:51:29;26.20;;;19.13;;
54139;SDS011;40046;53.254;5.900;2024-03-07T14:53:55;25.85;;;18.77;;
54139;SDS011;40046;53.254;5.900;2024-03-07T14:56:22;23.20;;;17.33;;
54139;SDS011;40046;53.254;5.900;2024-03-07T14:58:48;22.83;;;18.15;;
54139;SDS011;40046;53.254;5.900;2024-03-07T15:01:15;23.85;;;17.52;;
54139;SDS011;40046;53.254;5.900;2024-03-07T15:03:41;21.80;;;16.05;;
54139;SDS011;40046;53.254;5.900;2024-03-07T15:06:10;21.40;;;15.60;;
54139;SDS011;40046;53.254;5.900;2024-03-07T15:08:40;22.35;;;15.57;;
54139;SDS011;40046;53.254;5.900;2024-03-07T15:11:09;26.05;;;16.80;;